sensor_id;sensor_type;location;lat;lon;timestamp;pressure;altitude;pressure_sealevel;temperature;humidity
65280;BME280;51878;55.748;48.742;2023-04-09T00:04:25;100288.31;;;3.57;30.53
65280;BME280;51878;55.748;48.742;2023-04-09T00:09:27;100325.84;;;3.79;29.71
65280;BME280;51878;55.748;48.742;2023-04-09T00:14:30;100333.66;;;3.82;30.40
65280;BME280;51878;55.748;48.742;2023-04-09T00:19:32;100349.75;;;3.93;30.04
65280;BME280;51878;55.748;48.742;2023-04-09T00:24:34;100322.94;;;3.82;30.32
65280;BME280;51878;55.748;48.742;2023-04-09T00:29:36;100271.00;;;3.49;30.31
65280;BME280;51878;55.748;48.742;2023-04-09T00:34:38;100318.41;;;3.71;30.18
65280;BME280;51878;55.748;48.742;2023-04-09T00:39:40;100235.03;;;3.18;30.45
65280;BME280;51878;55.748;48.742;2023-04-09T00:44:43;100274.41;;;3.40;30.48
65280;BME280;51878;55.748;48.742;2023-04-09T00:49:45;100332.47;;;3.75;30.49
65280;BME280;51878;55.748;48.742;2023-04-09T00:54:48;100341.34;;;3.76;29.92
65280;BME280;51878;55.748;48.742;2023-04-09T00:59:51;100321.94;;;3.61;30.71
65280;BME280;51878;55.748;48.742;2023-04-09T01:04:53;100314.75;;;3.61;30.23
65280;BME280;51878;55.748;48.742;2023-04-09T01:10:12;100268.31;;;3.38;30.48
65280;BME280;51878;55.748;48.742;2023-04-09T01:15:22;100248.81;;;3.36;30.26
65280;BME280;51878;55.748;48.742;2023-04-09T01:20:34;100317.06;;;3.66;30.02
65280;BME280;51878;55.748;48.742;2023-04-09T01:25:44;100327.19;;;3.73;30.16
65280;BME280;51878;55.748;48.742;2023-04-09T01:31:00;100240.31;;;3.31;29.88
65280;BME280;51878;55.748;48.742;2023-04-09T01:36:05;100288.56;;;3.54;30.32
65280;BME280;51878;55.748;48.742;2023-04-09T01:41:13;100246.97;;;3.25;30.09
65280;BME280;51878;55.748;48.742;2023-04-09T01:46:17;100330.72;;;3.74;30.47
65280;BME280;51878;55.748;48.742;2023-04-09T01:51:20;100317.78;;;3.68;29.80
65280;BME280;51878;55.748;48.742;2023-04-09T01:56:22;100324.41;;;3.64;29.99
65280;BME280;51878;55.748;48.742;2023-04-09T02:07:34;100335.97;;;3.76;29.62
65280;BME280;51878;55.748;48.742;2023-04-09T02:12:28;100242.06;;;2.97;30.67
65280;BME280;51878;55.748;48.742;2023-04-09T02:17:32;100328.19;;;3.15;31.40
65280;BME280;51878;55.748;48.742;2023-04-09T02:22:34;100320.97;;;3.04;30.86
65280;BME280;51878;55.748;48.742;2023-04-09T02:27:36;100288.06;;;2.90;30.97
65280;BME280;51878;55.748;48.742;2023-04-09T02:32:38;100344.91;;;3.29;30.68
65280;BME280;51878;55.748;48.742;2023-04-09T02:37:41;100274.31;;;2.95;30.31
65280;BME280;51878;55.748;48.742;2023-04-09T02:42:43;100268.72;;;2.98;30.53
65280;BME280;51878;55.748;48.742;2023-04-09T02:47:45;100338.28;;;3.46;30.66
65280;BME280;51878;55.748;48.742;2023-04-09T02:52:47;100354.59;;;3.66;30.92
65280;BME280;51878;55.748;48.742;2023-04-09T02:57:49;100312.06;;;3.50;30.66
65280;BME280;51878;55.748;48.742;2023-04-09T03:02:51;100174.72;;;2.79;30.92
65280;BME280;51878;55.748;48.742;2023-04-09T03:07:53;100349.28;;;3.88;30.86
65280;BME280;51878;55.748;48.742;2023-04-09T03:12:55;100319.28;;;3.72;30.32
65280;BME280;51878;55.748;48.742;2023-04-09T03:17:57;100278.69;;;3.54;29.87
65280;BME280;51878;55.748;48.742;2023-04-09T03:23:00;100254.91;;;3.61;30.83
65280;BME280;51878;55.748;48.742;2023-04-09T03:28:02;100266.72;;;3.81;31.33
65280;BME280;51878;55.748;48.742;2023-04-09T03:33:07;100316.22;;;4.22;30.62
65280;BME280;51878;55.748;48.742;2023-04-09T03:38:09;100324.69;;;4.49;30.55
65280;BME280;51878;55.748;48.742;2023-04-09T03:43:11;100326.09;;;4.65;29.95
65280;BME280;51878;55.748;48.742;2023-04-09T03:48:13;100305.50;;;4.65;31.04
65280;BME280;51878;55.748;48.742;2023-04-09T03:53:15;100311.28;;;4.82;31.58
65280;BME280;51878;55.748;48.742;2023-04-09T03:58:17;100209.09;;;4.30;31.64
65280;BME280;51878;55.748;48.742;2023-04-09T04:03:19;100241.94;;;4.75;32.23
65280;BME280;51878;55.748;48.742;2023-04-09T04:08:21;100326.03;;;5.41;33.28
65280;BME280;51878;55.748;48.742;2023-04-09T04:13:24;100249.56;;;5.12;33.79
65280;BME280;51878;55.748;48.742;2023-04-09T04:18:26;100324.53;;;5.78;33.43
65280;BME280;51878;55.748;48.742;2023-04-09T04:23:28;100229.66;;;5.46;32.75
65280;BME280;51878;55.748;48.742;2023-04-09T04:28:30;100311.97;;;6.19;32.36
65280;BME280;51878;55.748;48.742;2023-04-09T04:33:41;100287.06;;;6.27;31.83
65280;BME280;51878;55.748;48.742;2023-04-09T04:38:43;100328.25;;;6.78;31.42
65280;BME280;51878;55.748;48.742;2023-04-09T04:43:46;100315.94;;;6.95;30.76
65280;BME280;51878;55.748;48.742;2023-04-09T04:48:48;100294.91;;;7.18;30.33
65280;BME280;51878;55.748;48.742;2023-04-09T04:53:50;100176.50;;;6.77;30.08
65280;BME280;51878;55.748;48.742;2023-04-09T04:58:52;100288.69;;;7.74;29.50
65280;BME280;51878;55.748;48.742;2023-04-09T05:03:54;100305.56;;;8.14;29.33
65280;BME280;51878;55.748;48.742;2023-04-09T05:08:57;100202.00;;;7.77;29.11
65280;BME280;51878;55.748;48.742;2023-04-09T05:13:59;100284.00;;;8.32;30.10
65280;BME280;51878;55.748;48.742;2023-04-09T05:19:04;100215.31;;;8.06;30.64
65280;BME280;51878;55.748;48.742;2023-04-09T05:24:09;100266.91;;;8.59;30.82
65280;BME280;51878;55.748;48.742;2023-04-09T05:29:12;100252.41;;;8.60;30.60
65280;BME280;51878;55.748;48.742;2023-04-09T05:34:14;100247.84;;;8.78;29.96
65280;BME280;51878;55.748;48.742;2023-04-09T05:39:16;100324.50;;;9.49;29.51
65280;BME280;51878;55.748;48.742;2023-04-09T05:44:18;100261.88;;;9.44;28.69
65280;BME280;51878;55.748;48.742;2023-04-09T05:49:20;100302.56;;;9.86;27.56
65280;BME280;51878;55.748;48.742;2023-04-09T05:54:23;100310.28;;;10.07;26.51
65280;BME280;51878;55.748;48.742;2023-04-09T05:59:25;100318.47;;;10.58;26.75
65280;BME280;51878;55.748;48.742;2023-04-09T06:04:27;100277.69;;;10.76;27.22
65280;BME280;51878;55.748;48.742;2023-04-09T06:09:30;100219.19;;;10.73;26.77
65280;BME280;51878;55.748;48.742;2023-04-09T06:14:32;100161.72;;;10.45;26.73
65280;BME280;51878;55.748;48.742;2023-04-09T06:19:34;100290.59;;;11.31;26.51
65280;BME280;51878;55.748;48.742;2023-04-09T06:24:39;100326.50;;;11.99;25.89
65280;BME280;51878;55.748;48.742;2023-04-09T06:29:41;100257.75;;;11.82;25.10
65280;BME280;51878;55.748;48.742;2023-04-09T06:34:43;100328.94;;;12.33;24.30
65280;BME280;51878;55.748;48.742;2023-04-09T06:39:45;100149.66;;;11.53;23.60
65280;BME280;51878;55.748;48.742;2023-04-09T06:45:03;100307.28;;;12.48;22.98
65280;BME280;51878;55.748;48.742;2023-04-09T06:50:09;100287.16;;;12.57;21.44
65280;BME280;51878;55.748;48.742;2023-04-09T06:55:12;100313.69;;;12.87;20.89
65280;BME280;51878;55.748;48.742;2023-04-09T07:00:17;100295.84;;;13.07;20.97
65280;BME280;51878;55.748;48.742;2023-04-09T07:05:20;100249.75;;;13.29;20.01
65280;BME280;51878;55.748;48.742;2023-04-09T07:10:22;100254.22;;;13.89;19.69
65280;BME280;51878;55.748;48.742;2023-04-09T07:15:24;100237.88;;;13.89;18.93
65280;BME280;51878;55.748;48.742;2023-04-09T07:20:26;100319.34;;;14.73;19.29
65280;BME280;51878;55.748;48.742;2023-04-09T07:25:28;100253.88;;;14.80;18.40
65280;BME280;51878;55.748;48.742;2023-04-09T07:30:31;100311.50;;;15.28;18.03
65280;BME280;51878;55.748;48.742;2023-04-09T07:35:33;100228.66;;;14.99;17.98
65280;BME280;51878;55.748;48.742;2023-04-09T07:40:36;100207.84;;;14.77;17.98
65280;BME280;51878;55.748;48.742;2023-04-09T07:45:38;100265.44;;;15.25;16.97
65280;BME280;51878;55.748;48.742;2023-04-09T07:50:46;100280.63;;;15.34;17.41
65280;BME280;51878;55.748;48.742;2023-04-09T07:55:56;100295.28;;;14.62;17.90
65280;BME280;51878;55.748;48.742;2023-04-09T08:00:58;100283.81;;;13.62;18.42
65280;BME280;51878;55.748;48.742;2023-04-09T08:06:00;100228.75;;;13.14;19.02
65280;BME280;51878;55.748;48.742;2023-04-09T08:11:03;100273.59;;;13.03;19.00
65280;BME280;51878;55.748;48.742;2023-04-09T08:16:10;100213.66;;;12.66;19.10
65280;BME280;51878;55.748;48.742;2023-04-09T08:21:12;100247.66;;;12.07;19.77
65280;BME280;51878;55.748;48.742;2023-04-09T08:26:14;100052.00;;;11.36;19.76
65280;BME280;51878;55.748;48.742;2023-04-09T08:31:16;100197.16;;;13.58;19.28
65280;BME280;51878;55.748;48.742;2023-04-09T08:36:20;100239.91;;;14.90;17.13
65280;BME280;51878;55.748;48.742;2023-04-09T08:41:23;100241.78;;;15.95;16.97
65280;BME280;51878;55.748;48.742;2023-04-09T08:46:27;100222.00;;;16.55;16.67
65280;BME280;51878;55.748;48.742;2023-04-09T08:51:29;100068.22;;;16.04;16.14
65280;BME280;51878;55.748;48.742;2023-04-09T08:56:32;100148.53;;;16.65;14.92
65280;BME280;51878;55.748;48.742;2023-04-09T09:01:34;100229.06;;;17.24;15.08
65280;BME280;51878;55.748;48.742;2023-04-09T09:06:39;100215.78;;;16.19;15.20
65280;BME280;51878;55.748;48.742;2023-04-09T09:11:45;100168.00;;;14.61;15.82
65280;BME280;51878;55.748;48.742;2023-04-09T09:21:59;100150.16;;;14.22;17.20
65280;BME280;51878;55.748;48.742;2023-04-09T09:27:01;100159.66;;;15.19;15.77
65280;BME280;51878;55.748;48.742;2023-04-09T09:32:12;100208.59;;;16.11;16.02
65280;BME280;51878;55.748;48.742;2023-04-09T09:37:27;100214.22;;;16.51;15.22
65280;BME280;51878;55.748;48.742;2023-04-09T09:42:30;100180.97;;;16.00;15.80
65280;BME280;51878;55.748;48.742;2023-04-09T09:47:33;100206.47;;;17.75;15.44
65280;BME280;51878;55.748;48.742;2023-04-09T09:52:38;100075.00;;;16.95;15.48
65280;BME280;51878;55.748;48.742;2023-04-09T09:57:43;100186.34;;;19.10;14.72
65280;BME280;51878;55.748;48.742;2023-04-09T10:02:54;100192.44;;;20.17;13.96
65280;BME280;51878;55.748;48.742;2023-04-09T10:07:59;100155.19;;;20.45;14.02
65280;BME280;51878;55.748;48.742;2023-04-09T10:13:02;100173.09;;;21.08;13.22
65280;BME280;51878;55.748;48.742;2023-04-09T10:18:08;100178.03;;;21.65;13.11
65280;BME280;51878;55.748;48.742;2023-04-09T10:23:17;100121.03;;;22.40;12.42
65280;BME280;51878;55.748;48.742;2023-04-09T10:28:22;100129.59;;;21.98;12.00
65280;BME280;51878;55.748;48.742;2023-04-09T10:33:25;100032.72;;;22.16;11.58
65280;BME280;51878;55.748;48.742;2023-04-09T10:43:39;100100.56;;;24.25;10.43
65280;BME280;51878;55.748;48.742;2023-04-09T10:48:42;100118.28;;;24.79;10.21
65280;BME280;51878;55.748;48.742;2023-04-09T10:53:45;100154.72;;;22.82;10.71
65280;BME280;51878;55.748;48.742;2023-04-09T10:58:47;100134.31;;;21.85;11.38
65280;BME280;51878;55.748;48.742;2023-04-09T11:04:07;100130.22;;;21.88;11.50
65280;BME280;51878;55.748;48.742;2023-04-09T11:09:11;100139.44;;;24.08;10.93
65280;BME280;51878;55.748;48.742;2023-04-09T11:14:18;100112.72;;;24.79;9.76
65280;BME280;51878;55.748;48.742;2023-04-09T11:19:21;100118.53;;;24.77;10.18
65280;BME280;51878;55.748;48.742;2023-04-09T11:24:24;100063.94;;;25.20;9.29
65280;BME280;51878;55.748;48.742;2023-04-09T11:29:26;100115.66;;;25.36;9.12
65280;BME280;51878;55.748;48.742;2023-04-09T11:34:28;100000.91;;;24.41;9.60
65280;BME280;51878;55.748;48.742;2023-04-09T11:39:31;100078.13;;;24.54;9.85
65280;BME280;51878;55.748;48.742;2023-04-09T11:44:37;100093.50;;;23.90;9.78
65280;BME280;51878;55.748;48.742;2023-04-09T11:49:39;100082.81;;;23.99;9.51
65280;BME280;51878;55.748;48.742;2023-04-09T11:54:42;100104.25;;;23.87;9.70
65280;BME280;51878;55.748;48.742;2023-04-09T11:59:49;100027.25;;;23.01;9.76
65280;BME280;51878;55.748;48.742;2023-04-09T12:04:51;100065.75;;;24.12;9.93
65280;BME280;51878;55.748;48.742;2023-04-09T12:09:53;100013.38;;;23.62;10.08
65280;BME280;51878;55.748;48.742;2023-04-09T12:14:55;100057.63;;;25.93;8.82
65280;BME280;51878;55.748;48.742;2023-04-09T12:19:59;100071.41;;;25.72;9.24
65280;BME280;51878;55.748;48.742;2023-04-09T12:25:03;100032.75;;;25.08;9.76
65280;BME280;51878;55.748;48.742;2023-04-09T12:30:06;100035.75;;;25.01;9.37
65280;BME280;51878;55.748;48.742;2023-04-09T12:35:08;100049.88;;;22.98;10.15
65280;BME280;51878;55.748;48.742;2023-04-09T12:40:11;99875.84;;;21.51;10.86
65280;BME280;51878;55.748;48.742;2023-04-09T12:45:17;100033.44;;;22.91;10.13
65280;BME280;51878;55.748;48.742;2023-04-09T12:50:19;99980.66;;;23.15;9.76
65280;BME280;51878;55.748;48.742;2023-04-09T12:55:21;100024.91;;;23.54;9.76
65280;BME280;51878;55.748;48.742;2023-04-09T13:00:45;99952.91;;;22.87;9.92
65280;BME280;51878;55.748;48.742;2023-04-09T13:05:47;99998.34;;;21.38;10.13
65280;BME280;51878;55.748;48.742;2023-04-09T13:10:50;100009.13;;;21.80;10.56
65280;BME280;51878;55.748;48.742;2023-04-09T13:16:12;99931.13;;;22.35;10.07
65280;BME280;51878;55.748;48.742;2023-04-09T13:21:34;99926.72;;;22.73;10.61
65280;BME280;51878;55.748;48.742;2023-04-09T13:26:36;99991.88;;;22.86;10.87
65280;BME280;51878;55.748;48.742;2023-04-09T13:31:51;99985.97;;;22.99;9.84
65280;BME280;51878;55.748;48.742;2023-04-09T13:36:53;99967.13;;;23.62;9.59
65280;BME280;51878;55.748;48.742;2023-04-09T13:41:59;99976.41;;;24.00;8.74
65280;BME280;51878;55.748;48.742;2023-04-09T13:47:21;99952.38;;;25.28;8.71
65280;BME280;51878;55.748;48.742;2023-04-09T13:52:43;99955.66;;;26.39;9.03
65280;BME280;51878;55.748;48.742;2023-04-09T13:58:04;99889.66;;;26.76;8.75
65280;BME280;51878;55.748;48.742;2023-04-09T14:03:06;99904.09;;;26.83;9.65
65280;BME280;51878;55.748;48.742;2023-04-09T14:08:08;99916.34;;;26.82;9.45
65280;BME280;51878;55.748;48.742;2023-04-09T14:13:11;99891.47;;;27.16;9.74
65280;BME280;51878;55.748;48.742;2023-04-09T14:18:13;99931.88;;;26.98;8.76
65280;BME280;51878;55.748;48.742;2023-04-09T14:23:27;99927.28;;;25.91;9.48
65280;BME280;51878;55.748;48.742;2023-04-09T14:28:29;99898.03;;;25.58;9.63
65280;BME280;51878;55.748;48.742;2023-04-09T14:33:32;99942.28;;;25.90;9.21
65280;BME280;51878;55.748;48.742;2023-04-09T14:38:35;99935.63;;;25.13;9.26
65280;BME280;51878;55.748;48.742;2023-04-09T14:43:37;99848.56;;;23.54;9.65
65280;BME280;51878;55.748;48.742;2023-04-09T14:48:40;99933.22;;;23.50;10.06
65280;BME280;51878;55.748;48.742;2023-04-09T14:53:42;99861.72;;;22.32;10.45
65280;BME280;51878;55.748;48.742;2023-04-09T14:58:44;99912.50;;;21.22;11.36
65280;BME280;51878;55.748;48.742;2023-04-09T15:03:46;99826.31;;;19.99;11.74
65280;BME280;51878;55.748;48.742;2023-04-09T15:08:48;99878.25;;;18.93;12.84
65280;BME280;51878;55.748;48.742;2023-04-09T15:13:51;99842.03;;;17.79;14.02
65280;BME280;51878;55.748;48.742;2023-04-09T15:18:53;99909.41;;;16.91;14.58
65280;BME280;51878;55.748;48.742;2023-04-09T15:23:58;99877.38;;;16.06;15.02
65280;BME280;51878;55.748;48.742;2023-04-09T15:29:02;99782.81;;;14.64;15.96
65280;BME280;51878;55.748;48.742;2023-04-09T15:34:07;99924.59;;;14.16;17.03
65280;BME280;51878;55.748;48.742;2023-04-09T15:39:15;99921.41;;;13.26;17.72
65280;BME280;51878;55.748;48.742;2023-04-09T15:44:17;99880.16;;;12.12;18.57
65280;BME280;51878;55.748;48.742;2023-04-09T15:49:19;99859.91;;;11.38;19.31
65280;BME280;51878;55.748;48.742;2023-04-09T15:54:21;99823.88;;;10.75;19.72
65280;BME280;51878;55.748;48.742;2023-04-09T15:59:24;99878.47;;;10.72;20.36
65280;BME280;51878;55.748;48.742;2023-04-09T16:04:26;99900.13;;;10.49;20.73
65280;BME280;51878;55.748;48.742;2023-04-09T16:09:28;99895.28;;;10.12;20.70
65280;BME280;51878;55.748;48.742;2023-04-09T16:14:30;99729.25;;;8.90;21.07
65280;BME280;51878;55.748;48.742;2023-04-09T16:19:33;99889.91;;;9.71;21.41
65280;BME280;51878;55.748;48.742;2023-04-09T16:24:35;99902.44;;;9.64;21.37
65280;BME280;51878;55.748;48.742;2023-04-09T16:29:37;99924.25;;;9.62;21.96
65280;BME280;51878;55.748;48.742;2023-04-09T16:34:39;99913.41;;;9.54;21.66
65280;BME280;51878;55.748;48.742;2023-04-09T16:39:41;99923.06;;;9.48;21.58
65280;BME280;51878;55.748;48.742;2023-04-09T16:44:43;99864.81;;;9.03;21.81
65280;BME280;51878;55.748;48.742;2023-04-09T16:49:46;99892.22;;;9.17;21.94
65280;BME280;51878;55.748;48.742;2023-04-09T16:54:48;99817.78;;;8.72;22.04
65280;BME280;51878;55.748;48.742;2023-04-09T16:59:50;99918.63;;;9.23;22.12
65280;BME280;51878;55.748;48.742;2023-04-09T17:04:52;99879.16;;;8.87;22.42
65280;BME280;51878;55.748;48.742;2023-04-09T17:09:55;99824.50;;;8.59;22.50
65280;BME280;51878;55.748;48.742;2023-04-09T17:14:57;99858.84;;;8.75;22.44
65280;BME280;51878;55.748;48.742;2023-04-09T17:20:07;99861.72;;;8.74;22.90
65280;BME280;51878;55.748;48.742;2023-04-09T17:25:10;99818.91;;;8.44;22.85
65280;BME280;51878;55.748;48.742;2023-04-09T17:30:12;99798.91;;;8.29;22.76
65280;BME280;51878;55.748;48.742;2023-04-09T17:35:14;99862.91;;;8.71;22.52
65280;BME280;51878;55.748;48.742;2023-04-09T17:40:17;99825.06;;;8.37;22.58
65280;BME280;51878;55.748;48.742;2023-04-09T17:45:20;99880.25;;;8.60;22.74
65280;BME280;51878;55.748;48.742;2023-04-09T17:50:22;99786.63;;;8.08;23.12
65280;BME280;51878;55.748;48.742;2023-04-09T17:55:25;99890.09;;;8.69;22.92
65280;BME280;51878;55.748;48.742;2023-04-09T18:00:28;99866.56;;;8.54;22.99
65280;BME280;51878;55.748;48.742;2023-04-09T18:05:30;99866.88;;;8.51;23.09
65280;BME280;51878;55.748;48.742;2023-04-09T18:10:32;99832.78;;;8.23;23.10
65280;BME280;51878;55.748;48.742;2023-04-09T18:15:35;99807.88;;;8.03;23.21
65280;BME280;51878;55.748;48.742;2023-04-09T18:20:37;99805.69;;;7.99;23.53
65280;BME280;51878;55.748;48.742;2023-04-09T18:25:40;99828.81;;;8.01;23.64
65280;BME280;51878;55.748;48.742;2023-04-09T18:30:42;99861.81;;;8.21;23.88
65280;BME280;51878;55.748;48.742;2023-04-09T18:35:44;99873.19;;;8.33;23.29
65280;BME280;51878;55.748;48.742;2023-04-09T18:40:46;99857.91;;;8.16;23.93
65280;BME280;51878;55.748;48.742;2023-04-09T18:45:57;99866.88;;;8.16;23.98
65280;BME280;51878;55.748;48.742;2023-04-09T18:50:59;99808.03;;;7.68;23.74
65280;BME280;51878;55.748;48.742;2023-04-09T18:56:04;99839.63;;;7.75;24.03
65280;BME280;51878;55.748;48.742;2023-04-09T19:01:09;99885.41;;;7.85;24.63
65280;BME280;51878;55.748;48.742;2023-04-09T19:06:17;99877.44;;;7.57;24.54
65280;BME280;51878;55.748;48.742;2023-04-09T19:11:20;99836.41;;;7.10;25.76
65280;BME280;51878;55.748;48.742;2023-04-09T19:16:22;99875.31;;;7.25;26.73
65280;BME280;51878;55.748;48.742;2023-04-09T19:21:24;99852.66;;;7.00;26.82
65280;BME280;51878;55.748;48.742;2023-04-09T19:26:26;99885.84;;;7.00;27.31
65280;BME280;51878;55.748;48.742;2023-04-09T19:31:28;99869.97;;;6.79;28.24
65280;BME280;51878;55.748;48.742;2023-04-09T19:36:30;99837.00;;;6.68;28.09
65280;BME280;51878;55.748;48.742;2023-04-09T19:41:34;99839.56;;;6.69;27.91
65280;BME280;51878;55.748;48.742;2023-04-09T19:46:36;99715.00;;;5.94;27.77
65280;BME280;51878;55.748;48.742;2023-04-09T19:51:38;99828.53;;;6.62;28.45
65280;BME280;51878;55.748;48.742;2023-04-09T19:56:41;99856.66;;;6.78;28.25
65280;BME280;51878;55.748;48.742;2023-04-09T20:01:43;99826.31;;;6.58;28.91
65280;BME280;51878;55.748;48.742;2023-04-09T20:06:45;99811.34;;;6.46;29.24
65280;BME280;51878;55.748;48.742;2023-04-09T20:11:50;99811.06;;;6.49;28.98
65280;BME280;51878;55.748;48.742;2023-04-09T20:16:52;99835.19;;;6.68;28.48
65280;BME280;51878;55.748;48.742;2023-04-09T20:21:55;99812.69;;;6.59;28.61
65280;BME280;51878;55.748;48.742;2023-04-09T20:27:02;99790.81;;;6.45;28.92
65280;BME280;51878;55.748;48.742;2023-04-09T20:32:05;99826.44;;;6.56;28.64
65280;BME280;51878;55.748;48.742;2023-04-09T20:37:07;99815.63;;;6.38;29.28
65280;BME280;51878;55.748;48.742;2023-04-09T20:42:10;99786.97;;;6.19;28.99
65280;BME280;51878;55.748;48.742;2023-04-09T20:47:12;99738.97;;;5.87;30.02
65280;BME280;51878;55.748;48.742;2023-04-09T20:52:16;99779.41;;;6.05;29.55
65280;BME280;51878;55.748;48.742;2023-04-09T20:57:18;99795.56;;;6.05;29.98
65280;BME280;51878;55.748;48.742;2023-04-09T21:02:20;99782.25;;;5.94;29.90
65280;BME280;51878;55.748;48.742;2023-04-09T21:07:22;99745.44;;;5.57;30.97
65280;BME280;51878;55.748;48.742;2023-04-09T21:12:24;99739.84;;;5.41;31.24
65280;BME280;51878;55.748;48.742;2023-04-09T21:17:28;99744.97;;;5.34;30.59
65280;BME280;51878;55.748;48.742;2023-04-09T21:22:33;99814.34;;;5.68;30.90
65280;BME280;51878;55.748;48.742;2023-04-09T21:27:36;99754.31;;;5.20;31.15
65280;BME280;51878;55.748;48.742;2023-04-09T21:32:38;99738.78;;;5.04;31.34
65280;BME280;51878;55.748;48.742;2023-04-09T21:37:40;99834.94;;;5.49;31.49
65280;BME280;51878;55.748;48.742;2023-04-09T21:42:42;99761.44;;;5.02;31.38
65280;BME280;51878;55.748;48.742;2023-04-09T21:47:44;99813.03;;;5.34;31.25
65280;BME280;51878;55.748;48.742;2023-04-09T21:52:47;99735.72;;;4.80;32.36
65280;BME280;51878;55.748;48.742;2023-04-09T21:57:49;99801.59;;;5.13;32.21
65280;BME280;51878;55.748;48.742;2023-04-09T22:02:54;99735.75;;;4.70;31.66
65280;BME280;51878;55.748;48.742;2023-04-09T22:08:02;99730.94;;;4.64;31.56
65280;BME280;51878;55.748;48.742;2023-04-09T22:13:04;99797.75;;;4.96;31.85
65280;BME280;51878;55.748;48.742;2023-04-09T22:18:06;99730.06;;;4.53;32.22
65280;BME280;51878;55.748;48.742;2023-04-09T22:23:08;99797.78;;;4.86;32.84
65280;BME280;51878;55.748;48.742;2023-04-09T22:28:13;99703.38;;;4.32;32.17
65280;BME280;51878;55.748;48.742;2023-04-09T22:33:15;99681.59;;;4.06;32.71
65280;BME280;51878;55.748;48.742;2023-04-09T22:38:17;99743.63;;;4.42;33.50
65280;BME280;51878;55.748;48.742;2023-04-09T22:43:20;99704.31;;;4.12;33.14
65280;BME280;51878;55.748;48.742;2023-04-09T22:48:23;99702.94;;;4.08;34.32
65280;BME280;51878;55.748;48.742;2023-04-09T22:53:26;99731.16;;;4.12;34.77
65280;BME280;51878;55.748;48.742;2023-04-09T22:58:28;99636.16;;;3.45;35.95
65280;BME280;51878;55.748;48.742;2023-04-09T23:03:30;99773.53;;;4.18;36.59
65280;BME280;51878;55.748;48.742;2023-04-09T23:08:32;99638.94;;;3.34;36.25
65280;BME280;51878;55.748;48.742;2023-04-09T23:13:34;99762.63;;;4.10;36.22
65280;BME280;51878;55.748;48.742;2023-04-09T23:18:37;99760.78;;;4.01;35.81
65280;BME280;51878;55.748;48.742;2023-04-09T23:23:39;99629.47;;;3.29;36.15
65280;BME280;51878;55.748;48.742;2023-04-09T23:28:41;99687.00;;;3.66;36.17
65280;BME280;51878;55.748;48.742;2023-04-09T23:33:43;99722.22;;;3.92;35.71
65280;BME280;51878;55.748;48.742;2023-04-09T23:38:46;99670.03;;;3.56;36.23
65280;BME280;51878;55.748;48.742;2023-04-09T23:43:49;99754.03;;;4.06;35.71
65280;BME280;51878;55.748;48.742;2023-04-09T23:48:51;99666.91;;;3.50;35.33
65280;BME280;51878;55.748;48.742;2023-04-09T23:53:53;99718.66;;;3.82;35.39
65280;BME280;51878;55.748;48.742;2023-04-09T23:58:55;99680.78;;;3.56;35.00
